BAW213 EGLL-KBOS
Flight info
| Callsign | BAW213 |
|---|---|
| Flight time | N/A |
| Altitude | 36000 |
| Route | CPT L9 BUCGO DCT FELCA DCT OFSOX DCT SLANY DCT MALOT/M083F380 DCT 54N020W 54N030W 54N040W 53N050W DCT RIKAL/N0481F380 N572A TOPPS DCT AJJAY OOSHN5 |
| Aircraft | A388/J-SADE2E3FGHIJ3J4J5M1RWXY/LB1D1 |
Departure
| Time | 2026-05-04 11:28 |
|---|---|
| Airport | London Heathrow Airport (EGLL) |
Arrival
| Time | N/A |
|---|---|
| Airport | Boston Logan International Airport (KBOS) |
| Time | Latitude | Longitude | Altitude | Speed | Heading |
|---|---|---|---|---|---|
| 2026-05-04 10:37 | 51.47055 | -0.47485 | 93 ft | 0 kts | 270° |
| 2026-05-04 11:13 | 51.47055 | -0.47458 | 93 ft | 3 kts | 270° |
| 2026-05-04 11:13 | 51.47055 | -0.47425 | 91 ft | 3 kts | 270° |
| 2026-05-04 11:13 | 51.47055 | -0.47394 | 91 ft | 3 kts | 268° |
| 2026-05-04 11:14 | 51.47059 | -0.47366 | 92 ft | 3 kts | 220° |
| 2026-05-04 11:14 | 51.47075 | -0.47354 | 92 ft | 3 kts | 186° |
| 2026-05-04 11:14 | 51.47096 | -0.47352 | 92 ft | 3 kts | 180° |
| 2026-05-04 11:16 | 51.47100 | -0.47352 | 91 ft | 1 kts | 180° |
| 2026-05-04 11:19 | 51.47092 | -0.47352 | 92 ft | 3 kts | 180° |
| 2026-05-04 11:19 | 51.47052 | -0.47352 | 93 ft | 8 kts | 180° |
| 2026-05-04 11:20 | 51.46980 | -0.47352 | 94 ft | 12 kts | 180° |
| 2026-05-04 11:20 | 51.46911 | -0.47351 | 94 ft | 10 kts | 180° |
| 2026-05-04 11:20 | 51.46828 | -0.47351 | 91 ft | 14 kts | 180° |
| 2026-05-04 11:20 | 51.46764 | -0.47342 | 95 ft | 8 kts | 148° |
| 2026-05-04 11:22 | 51.46747 | -0.46221 | 95 ft | 19 kts | 91° |
| 2026-05-04 11:22 | 51.46748 | -0.46001 | 94 ft | 20 kts | 89° |
| 2026-05-04 11:23 | 51.46749 | -0.45788 | 94 ft | 19 kts | 89° |
| 2026-05-04 11:23 | 51.46750 | -0.45569 | 93 ft | 20 kts | 89° |
| 2026-05-04 11:24 | 51.46754 | -0.44229 | 94 ft | 17 kts | 89° |
| 2026-05-04 11:25 | 51.46759 | -0.44081 | 95 ft | 14 kts | 78° |
| 2026-05-04 11:25 | 51.46770 | -0.43922 | 94 ft | 15 kts | 89° |
| 2026-05-04 11:25 | 51.46772 | -0.43746 | 94 ft | 15 kts | 89° |
| 2026-05-04 11:26 | 51.46707 | -0.43610 | 92 ft | 11 kts | 176° |
| 2026-05-04 11:27 | 51.46491 | -0.45322 | 93 ft | 133 kts | 270° |
| 2026-05-04 11:28 | 51.46489 | -0.47029 | 108 ft | 169 kts | 272° |
| 2026-05-04 11:28 | 51.46498 | -0.48929 | 430 ft | 174 kts | 271° |
| 2026-05-04 11:28 | 51.46497 | -0.50877 | 881 ft | 176 kts | 272° |
| 2026-05-04 11:28 | 51.46518 | -0.52856 | 1323 ft | 178 kts | 273° |
| 2026-05-04 11:29 | 51.46487 | -0.54175 | 1710 ft | 181 kts | 266° |
| 2026-05-04 11:29 | 51.46329 | -0.56258 | 2040 ft | 196 kts | 264° |
| 2026-05-04 11:29 | 51.46157 | -0.58518 | 2289 ft | 212 kts | 264° |
| 2026-05-04 11:29 | 51.46017 | -0.60956 | 2416 ft | 229 kts | 266° |
| 2026-05-04 11:31 | 51.45467 | -0.81376 | 5986 ft | 270 kts | 266° |
| 2026-05-04 11:33 | 51.46939 | -1.02330 | 6740 ft | 276 kts | 278° |
| 2026-05-04 11:33 | 51.47281 | -1.05342 | 7582 ft | 274 kts | 278° |
| 2026-05-04 11:33 | 51.47619 | -1.08324 | 8336 ft | 277 kts | 278° |
| 2026-05-04 11:34 | 51.47969 | -1.11414 | 9102 ft | 279 kts | 278° |
| 2026-05-04 11:34 | 51.48316 | -1.14487 | 9893 ft | 281 kts | 278° |
| 2026-05-04 11:34 | 51.48662 | -1.17563 | 10399 ft | 291 kts | 278° |
| 2026-05-04 11:34 | 51.49232 | -1.20809 | 10576 ft | 313 kts | 292° |
| 2026-05-04 11:35 | 51.50418 | -1.23867 | 10780 ft | 335 kts | 309° |
| 2026-05-04 11:35 | 51.52130 | -1.26476 | 11299 ft | 342 kts | 316° |
| 2026-05-04 11:35 | 51.53893 | -1.29082 | 11911 ft | 346 kts | 315° |
| 2026-05-04 11:35 | 51.55657 | -1.31750 | 12549 ft | 349 kts | 314° |
| 2026-05-04 11:36 | 51.57428 | -1.34447 | 13180 ft | 353 kts | 315° |
| 2026-05-04 11:36 | 51.59194 | -1.37146 | 13738 ft | 356 kts | 313° |
| 2026-05-04 11:36 | 51.60815 | -1.40169 | 14293 ft | 358 kts | 304° |
| 2026-05-04 11:36 | 51.62138 | -1.43565 | 14857 ft | 359 kts | 296° |
| 2026-05-04 11:37 | 51.63296 | -1.47149 | 15320 ft | 365 kts | 296° |
| 2026-05-04 11:37 | 51.64499 | -1.50770 | 15873 ft | 367 kts | 296° |
| 2026-05-04 11:37 | 51.65719 | -1.54410 | 16393 ft | 370 kts | 296° |
| 2026-05-04 11:37 | 51.66946 | -1.58080 | 16911 ft | 373 kts | 296° |
| 2026-05-04 11:38 | 51.68180 | -1.61787 | 17423 ft | 376 kts | 296° |
| 2026-05-04 11:38 | 51.69377 | -1.65490 | 17904 ft | 379 kts | 292° |
| 2026-05-04 11:38 | 51.70290 | -1.69486 | 18367 ft | 380 kts | 283° |
| 2026-05-04 11:38 | 51.70816 | -1.73666 | 18824 ft | 381 kts | 275° |
| 2026-05-04 11:39 | 51.71095 | -1.77915 | 19256 ft | 383 kts | 274° |
| 2026-05-04 11:39 | 51.71399 | -1.82194 | 19686 ft | 385 kts | 275° |
| 2026-05-04 11:40 | 51.73288 | -2.08523 | 22264 ft | 402 kts | 275° |
| 2026-05-04 11:41 | 51.73601 | -2.13020 | 22670 ft | 404 kts | 275° |
| 2026-05-04 11:41 | 51.73914 | -2.17545 | 23078 ft | 407 kts | 274° |
| 2026-05-04 11:41 | 51.74223 | -2.22034 | 23476 ft | 409 kts | 274° |
| 2026-05-04 11:41 | 51.74536 | -2.26614 | 23837 ft | 412 kts | 274° |
| 2026-05-04 11:42 | 51.74850 | -2.31219 | 24214 ft | 413 kts | 274° |
| 2026-05-04 11:42 | 51.75163 | -2.35837 | 24575 ft | 415 kts | 274° |
| 2026-05-04 11:42 | 51.75476 | -2.40479 | 24931 ft | 416 kts | 274° |
| 2026-05-04 11:42 | 51.75787 | -2.45143 | 25281 ft | 419 kts | 274° |
| 2026-05-04 11:43 | 51.76099 | -2.49834 | 25637 ft | 421 kts | 274° |
| 2026-05-04 11:43 | 51.76410 | -2.54543 | 26026 ft | 423 kts | 274° |
| 2026-05-04 11:43 | 51.76722 | -2.59286 | 26410 ft | 425 kts | 274° |
| 2026-05-04 11:43 | 51.77032 | -2.64052 | 26811 ft | 428 kts | 274° |
| 2026-05-04 11:44 | 51.77342 | -2.68846 | 27229 ft | 430 kts | 274° |
| 2026-05-04 11:44 | 51.77653 | -2.73667 | 27657 ft | 433 kts | 274° |
| 2026-05-04 11:44 | 51.77963 | -2.78527 | 28000 ft | 437 kts | 274° |
| 2026-05-04 11:44 | 51.78275 | -2.83426 | 28388 ft | 440 kts | 275° |
| 2026-05-04 11:45 | 51.78587 | -2.88355 | 28799 ft | 442 kts | 275° |
| 2026-05-04 11:45 | 51.78894 | -2.93256 | 29181 ft | 446 kts | 275° |
| 2026-05-04 11:45 | 51.79208 | -2.98291 | 29404 ft | 453 kts | 275° |
| 2026-05-04 11:45 | 51.79522 | -3.03369 | 29880 ft | 455 kts | 275° |
| 2026-05-04 11:46 | 51.79837 | -3.08483 | 30250 ft | 459 kts | 275° |
| 2026-05-04 11:46 | 51.80151 | -3.13626 | 30611 ft | 461 kts | 275° |
| 2026-05-04 11:46 | 51.80464 | -3.18810 | 30949 ft | 464 kts | 275° |
| 2026-05-04 11:46 | 51.80777 | -3.24011 | 31284 ft | 467 kts | 275° |
| 2026-05-04 11:47 | 51.81090 | -3.29259 | 31623 ft | 470 kts | 275° |
| 2026-05-04 11:47 | 51.81402 | -3.34539 | 31948 ft | 473 kts | 275° |
| 2026-05-04 11:47 | 51.81714 | -3.39856 | 32273 ft | 477 kts | 275° |
| 2026-05-04 11:47 | 51.82023 | -3.45167 | 32436 ft | 483 kts | 276° |
| 2026-05-04 11:48 | 51.82341 | -3.50666 | 32744 ft | 486 kts | 276° |
| 2026-05-04 11:48 | 51.82778 | -3.56023 | 33069 ft | 488 kts | 282° |
| 2026-05-04 11:48 | 51.83494 | -3.61418 | 33396 ft | 491 kts | 283° |
| 2026-05-04 11:48 | 51.84211 | -3.66851 | 33721 ft | 494 kts | 282° |
| 2026-05-04 11:49 | 51.84922 | -3.72319 | 34031 ft | 497 kts | 282° |
| 2026-05-04 11:49 | 51.85622 | -3.77738 | 34311 ft | 500 kts | 282° |
| 2026-05-04 11:49 | 51.86329 | -3.83251 | 34625 ft | 501 kts | 282° |
| 2026-05-04 11:49 | 51.87036 | -3.88789 | 34944 ft | 502 kts | 282° |
| 2026-05-04 11:50 | 51.87740 | -3.94334 | 35260 ft | 504 kts | 282° |
| 2026-05-04 11:50 | 51.88446 | -3.99903 | 35661 ft | 504 kts | 282° |
| 2026-05-04 11:50 | 51.89148 | -4.05462 | 36003 ft | 506 kts | 282° |
| 2026-05-04 11:51 | 51.90550 | -4.16636 | 36038 ft | 503 kts | 282° |
| 2026-05-04 11:51 | 51.91931 | -4.27737 | 36036 ft | 506 kts | 282° |
| 2026-05-04 11:52 | 51.93313 | -4.38930 | 36038 ft | 506 kts | 282° |
| 2026-05-04 11:52 | 51.94685 | -4.50144 | 36042 ft | 507 kts | 282° |
| 2026-05-04 11:53 | 51.96042 | -4.61331 | 36027 ft | 508 kts | 282° |
| 2026-05-04 11:53 | 51.97397 | -4.72584 | 36038 ft | 508 kts | 282° |
| 2026-05-04 11:55 | 52.02722 | -5.17736 | 36045 ft | 510 kts | 283° |
| 2026-05-04 11:56 | 52.04768 | -5.28670 | 36048 ft | 509 kts | 290° |
| 2026-05-04 11:56 | 52.06986 | -5.39604 | 36060 ft | 509 kts | 290° |
| 2026-05-04 11:57 | 52.09183 | -5.50557 | 36064 ft | 510 kts | 289° |
| 2026-05-04 11:57 | 52.11374 | -5.61539 | 36065 ft | 510 kts | 289° |
| 2026-05-04 11:58 | 52.13553 | -5.72522 | 36070 ft | 510 kts | 289° |
| 2026-05-04 11:58 | 52.15705 | -5.83543 | 36048 ft | 511 kts | 287° |
| 2026-05-04 11:59 | 52.17231 | -5.94814 | 36048 ft | 514 kts | 284° |
| 2026-05-04 11:59 | 52.18723 | -6.06224 | 36066 ft | 516 kts | 284° |
| 2026-05-04 12:00 | 52.20231 | -6.17692 | 36080 ft | 517 kts | 284° |
| 2026-05-04 12:00 | 52.21726 | -6.29165 | 36092 ft | 518 kts | 284° |
| 2026-05-04 12:01 | 52.23213 | -6.40687 | 36097 ft | 519 kts | 284° |
| 2026-05-04 12:02 | 52.28283 | -6.80974 | 36084 ft | 518 kts | 284° |
| 2026-05-04 12:03 | 52.29706 | -6.92503 | 36079 ft | 517 kts | 283° |
| 2026-05-04 12:03 | 52.31117 | -7.04028 | 36074 ft | 517 kts | 284° |
| 2026-05-04 12:04 | 52.32512 | -7.15531 | 36090 ft | 516 kts | 283° |
| 2026-05-04 12:04 | 52.33897 | -7.27037 | 36081 ft | 515 kts | 283° |
| 2026-05-04 12:05 | 52.35268 | -7.38535 | 36076 ft | 514 kts | 283° |
| 2026-05-04 12:05 | 52.36615 | -7.49933 | 36075 ft | 513 kts | 283° |
| 2026-05-04 12:06 | 52.37960 | -7.61409 | 36072 ft | 513 kts | 283° |
| 2026-05-04 12:06 | 52.39292 | -7.72882 | 36072 ft | 513 kts | 283° |
| 2026-05-04 12:07 | 52.40615 | -7.84377 | 36073 ft | 513 kts | 283° |
| 2026-05-04 12:07 | 52.41927 | -7.95879 | 36075 ft | 513 kts | 283° |
| 2026-05-04 12:08 | 52.43220 | -8.07320 | 36082 ft | 513 kts | 283° |
| 2026-05-04 12:08 | 52.44507 | -8.18817 | 36088 ft | 513 kts | 283° |
| 2026-05-04 12:09 | 52.45787 | -8.30359 | 36089 ft | 513 kts | 283° |
| 2026-05-04 12:09 | 52.47056 | -8.41903 | 36105 ft | 513 kts | 282° |
| 2026-05-04 12:10 | 52.48308 | -8.53406 | 36126 ft | 511 kts | 283° |
| 2026-05-04 12:10 | 52.49535 | -8.64783 | 36111 ft | 509 kts | 282° |
| 2026-05-04 12:11 | 52.50758 | -8.76233 | 36110 ft | 508 kts | 282° |
| 2026-05-04 12:11 | 52.51967 | -8.87657 | 36108 ft | 507 kts | 282° |
| 2026-05-04 12:12 | 52.53164 | -8.99073 | 36092 ft | 506 kts | 282° |
| 2026-05-04 12:12 | 52.54347 | -9.10472 | 36094 ft | 505 kts | 282° |
| 2026-05-04 12:14 | 52.58945 | -9.55898 | 36119 ft | 504 kts | 282° |
| 2026-05-04 12:15 | 52.60070 | -9.67293 | 36132 ft | 504 kts | 282° |
| 2026-05-04 12:15 | 52.61186 | -9.78708 | 36159 ft | 503 kts | 281° |
| 2026-05-04 12:16 | 52.62098 | -9.88142 | 36163 ft | 502 kts | 281° |
| 2026-05-04 12:16 | 52.63361 | -10.01327 | 36153 ft | 500 kts | 281° |
| 2026-05-04 12:17 | 52.64253 | -10.10734 | 36150 ft | 499 kts | 281° |
| 2026-05-04 12:17 | 52.65311 | -10.22008 | 36143 ft | 498 kts | 281° |
| 2026-05-04 12:18 | 52.66358 | -10.33283 | 36136 ft | 497 kts | 281° |
| 2026-05-04 12:18 | 52.67394 | -10.44556 | 36132 ft | 497 kts | 281° |
| 2026-05-04 12:19 | 52.68418 | -10.55823 | 36143 ft | 497 kts | 281° |
| 2026-05-04 12:19 | 52.69426 | -10.67029 | 36144 ft | 497 kts | 281° |
| 2026-05-04 12:20 | 52.70429 | -10.78316 | 36147 ft | 497 kts | 281° |
| 2026-05-04 12:20 | 52.71423 | -10.89612 | 36149 ft | 498 kts | 281° |
| 2026-05-04 12:21 | 52.72407 | -11.00934 | 36158 ft | 498 kts | 281° |
| 2026-05-04 12:21 | 52.73380 | -11.12251 | 36149 ft | 498 kts | 280° |
| 2026-05-04 12:22 | 52.74338 | -11.23542 | 36192 ft | 496 kts | 280° |
| 2026-05-04 12:22 | 52.75279 | -11.34746 | 36173 ft | 495 kts | 280° |
| 2026-05-04 12:23 | 52.76213 | -11.45996 | 36163 ft | 493 kts | 280° |
| 2026-05-04 12:23 | 52.77133 | -11.57210 | 36164 ft | 492 kts | 280° |
| 2026-05-04 12:24 | 52.78041 | -11.68417 | 36182 ft | 491 kts | 279° |
| 2026-05-04 12:24 | 52.78937 | -11.79614 | 36167 ft | 491 kts | 279° |
| 2026-05-04 12:25 | 52.79815 | -11.90719 | 36168 ft | 490 kts | 279° |
| 2026-05-04 12:25 | 52.80695 | -12.01973 | 36168 ft | 490 kts | 279° |
| 2026-05-04 12:26 | 52.81558 | -12.13158 | 36172 ft | 491 kts | 279° |
| 2026-05-04 12:26 | 52.82405 | -12.24281 | 36181 ft | 490 kts | 279° |
| 2026-05-04 12:27 | 52.83246 | -12.35460 | 36186 ft | 490 kts | 279° |
| 2026-05-04 12:27 | 52.84077 | -12.46659 | 36182 ft | 490 kts | 279° |
| 2026-05-04 12:28 | 52.84898 | -12.57859 | 36179 ft | 489 kts | 279° |
| 2026-05-04 12:28 | 52.85707 | -12.69050 | 36179 ft | 489 kts | 278° |
| 2026-05-04 12:29 | 52.86499 | -12.80159 | 36186 ft | 488 kts | 278° |
| 2026-05-04 12:29 | 52.87286 | -12.91335 | 36185 ft | 488 kts | 278° |
| 2026-05-04 12:30 | 52.88061 | -13.02496 | 36183 ft | 488 kts | 278° |
| 2026-05-04 12:30 | 52.88825 | -13.13658 | 36183 ft | 488 kts | 278° |
| 2026-05-04 12:31 | 52.89578 | -13.24819 | 36177 ft | 488 kts | 278° |
| 2026-05-04 12:31 | 52.90321 | -13.35983 | 36190 ft | 487 kts | 278° |
| 2026-05-04 12:32 | 52.91410 | -13.52649 | 36193 ft | 487 kts | 277° |
| 2026-05-04 12:33 | 52.92126 | -13.63814 | 36194 ft | 487 kts | 277° |
| 2026-05-04 12:33 | 52.92832 | -13.74981 | 36193 ft | 486 kts | 277° |
| 2026-05-04 12:34 | 52.93521 | -13.86069 | 36208 ft | 485 kts | 277° |
| 2026-05-04 12:34 | 52.94203 | -13.97190 | 36207 ft | 484 kts | 276° |
| 2026-05-04 12:35 | 52.94872 | -14.08281 | 36198 ft | 483 kts | 277° |
| 2026-05-04 12:35 | 52.95529 | -14.19355 | 36195 ft | 482 kts | 277° |
| 2026-05-04 12:36 | 52.96175 | -14.30415 | 36194 ft | 481 kts | 277° |
| 2026-05-04 12:36 | 52.96811 | -14.41464 | 36196 ft | 480 kts | 276° |
| 2026-05-04 12:37 | 52.97435 | -14.52492 | 36189 ft | 480 kts | 276° |
| 2026-05-04 12:37 | 52.98049 | -14.63528 | 36201 ft | 480 kts | 276° |
| 2026-05-04 12:38 | 52.98661 | -14.74564 | 36194 ft | 480 kts | 276° |
| 2026-05-04 12:38 | 52.99260 | -14.85526 | 36204 ft | 480 kts | 276° |
| 2026-05-04 12:39 | 52.99855 | -14.96561 | 36219 ft | 479 kts | 276° |
| 2026-05-04 12:39 | 53.00485 | -15.01985 | 36197 ft | 478 kts | 287° |
| 2026-05-04 12:39 | 53.01577 | -15.07187 | 36214 ft | 478 kts | 291° |
| 2026-05-04 12:40 | 53.03924 | -15.17525 | 36230 ft | 477 kts | 290° |
| 2026-05-04 12:40 | 53.06247 | -15.27839 | 36234 ft | 475 kts | 290° |
| 2026-05-04 12:41 | 53.08534 | -15.38087 | 36231 ft | 474 kts | 290° |
| 2026-05-04 12:41 | 53.10818 | -15.48396 | 36241 ft | 473 kts | 290° |
| 2026-05-04 12:42 | 53.13083 | -15.58682 | 36188 ft | 474 kts | 290° |
| 2026-05-04 12:42 | 53.15341 | -15.68982 | 36256 ft | 472 kts | 290° |
| 2026-05-04 12:43 | 53.17585 | -15.79272 | 36221 ft | 472 kts | 289° |
| 2026-05-04 12:43 | 53.19816 | -15.89554 | 36236 ft | 470 kts | 289° |
| 2026-05-04 12:44 | 53.22019 | -15.99757 | 36184 ft | 471 kts | 289° |
| 2026-05-04 12:44 | 53.24224 | -16.10021 | 36177 ft | 470 kts | 289° |
| 2026-05-04 12:45 | 53.26423 | -16.20307 | 36218 ft | 470 kts | 289° |
| 2026-05-04 12:45 | 53.28612 | -16.30600 | 36204 ft | 470 kts | 289° |
| 2026-05-04 12:46 | 53.30794 | -16.40910 | 36205 ft | 470 kts | 289° |
| 2026-05-04 12:46 | 53.32965 | -16.51225 | 36203 ft | 470 kts | 289° |
| 2026-05-04 12:47 | 53.35128 | -16.61547 | 36229 ft | 470 kts | 288° |
| 2026-05-04 12:47 | 53.37267 | -16.71813 | 36224 ft | 470 kts | 288° |
| 2026-05-04 12:48 | 53.39410 | -16.82151 | 36239 ft | 469 kts | 288° |
| 2026-05-04 12:48 | 53.41544 | -16.92496 | 36246 ft | 469 kts | 288° |
| 2026-05-04 12:49 | 53.43665 | -17.02836 | 36231 ft | 468 kts | 288° |
| 2026-05-04 12:49 | 53.45780 | -17.13195 | 36232 ft | 468 kts | 288° |
| 2026-05-04 12:50 | 53.47872 | -17.23499 | 36223 ft | 469 kts | 288° |
| 2026-05-04 12:50 | 53.49966 | -17.33866 | 36244 ft | 468 kts | 288° |
| 2026-05-04 12:51 | 53.52048 | -17.44231 | 36237 ft | 468 kts | 288° |
| 2026-05-04 12:51 | 53.54118 | -17.54588 | 36238 ft | 467 kts | 288° |
| 2026-05-04 12:52 | 53.56177 | -17.64946 | 36226 ft | 467 kts | 288° |
| 2026-05-04 12:52 | 53.58230 | -17.75329 | 36227 ft | 467 kts | 287° |
| 2026-05-04 12:53 | 53.60261 | -17.85653 | 36227 ft | 467 kts | 287° |
| 2026-05-04 12:53 | 53.62296 | -17.96059 | 36249 ft | 466 kts | 288° |
| 2026-05-04 12:54 | 53.64318 | -18.06447 | 36262 ft | 466 kts | 287° |
| 2026-05-04 12:54 | 53.66331 | -18.16852 | 36247 ft | 466 kts | 287° |
| 2026-05-04 12:55 | 53.68325 | -18.27213 | 36229 ft | 466 kts | 287° |
| 2026-05-04 12:55 | 53.70321 | -18.37639 | 36239 ft | 466 kts | 287° |
| 2026-05-04 12:56 | 53.72306 | -18.48062 | 36249 ft | 466 kts | 287° |
| 2026-05-04 12:56 | 53.74270 | -18.58434 | 36244 ft | 466 kts | 287° |
| 2026-05-04 12:57 | 53.76235 | -18.68870 | 36271 ft | 466 kts | 287° |
| 2026-05-04 12:57 | 53.78194 | -18.79334 | 36248 ft | 467 kts | 287° |
| 2026-05-04 12:58 | 53.80147 | -18.89825 | 36259 ft | 466 kts | 287° |
| 2026-05-04 12:58 | 53.82078 | -19.00249 | 36268 ft | 466 kts | 287° |
| 2026-05-04 12:59 | 53.84007 | -19.10729 | 36261 ft | 466 kts | 287° |
| 2026-05-04 12:59 | 53.85926 | -19.21212 | 36274 ft | 465 kts | 287° |
| 2026-05-04 13:00 | 53.87837 | -19.31708 | 36263 ft | 465 kts | 287° |
| 2026-05-04 13:00 | 53.89738 | -19.42211 | 36251 ft | 466 kts | 287° |
| 2026-05-04 13:01 | 53.91627 | -19.52708 | 36283 ft | 465 kts | 287° |
| 2026-05-04 13:01 | 53.93495 | -19.63145 | 36264 ft | 465 kts | 287° |
| 2026-05-04 13:02 | 53.95365 | -19.73661 | 36261 ft | 465 kts | 287° |
| 2026-05-04 13:02 | 53.97232 | -19.84203 | 36259 ft | 465 kts | 287° |
| 2026-05-04 13:03 | 53.99044 | -19.94751 | 36266 ft | 465 kts | 284° |
| 2026-05-04 13:03 | 54.00187 | -20.05562 | 36269 ft | 466 kts | 276° |
| 2026-05-04 13:04 | 54.00631 | -20.16554 | 36265 ft | 466 kts | 274° |
| 2026-05-04 13:04 | 54.01074 | -20.27473 | 36295 ft | 466 kts | 275° |
| 2026-05-04 13:05 | 54.01518 | -20.38482 | 36273 ft | 466 kts | 274° |
| 2026-05-04 13:05 | 54.01947 | -20.49480 | 36290 ft | 466 kts | 274° |
| 2026-05-04 13:06 | 54.02293 | -20.58618 | 36282 ft | 466 kts | 274° |
| 2026-05-04 13:06 | 54.02760 | -20.71435 | 36300 ft | 466 kts | 274° |
| 2026-05-04 13:07 | 54.03082 | -20.80586 | 36304 ft | 466 kts | 274° |
| 2026-05-04 13:07 | 54.03461 | -20.91588 | 36289 ft | 466 kts | 274° |
| 2026-05-04 13:08 | 54.03830 | -21.02610 | 36295 ft | 466 kts | 273° |
| 2026-05-04 13:08 | 54.04189 | -21.13621 | 36294 ft | 466 kts | 273° |
| 2026-05-04 13:09 | 54.04537 | -21.24648 | 36301 ft | 467 kts | 273° |
| 2026-05-04 13:09 | 54.04876 | -21.35677 | 36310 ft | 467 kts | 273° |
| 2026-05-04 13:10 | 54.05205 | -21.46720 | 36309 ft | 467 kts | 273° |
| 2026-05-04 13:10 | 54.05524 | -21.57765 | 36303 ft | 467 kts | 273° |
| 2026-05-04 13:11 | 54.05831 | -21.68749 | 36316 ft | 467 kts | 273° |
| 2026-05-04 13:11 | 54.06130 | -21.79792 | 36315 ft | 467 kts | 273° |
| 2026-05-04 13:12 | 54.06418 | -21.90832 | 36309 ft | 467 kts | 272° |
| 2026-05-04 13:12 | 54.06697 | -22.01898 | 36318 ft | 467 kts | 272° |
| 2026-05-04 13:13 | 54.06965 | -22.12945 | 36309 ft | 467 kts | 272° |
| 2026-05-04 13:13 | 54.07224 | -22.24010 | 36317 ft | 467 kts | 272° |
| 2026-05-04 13:14 | 54.07472 | -22.35063 | 36317 ft | 467 kts | 272° |
| 2026-05-04 13:14 | 54.07710 | -22.46115 | 36316 ft | 467 kts | 272° |
| 2026-05-04 13:15 | 54.07938 | -22.57164 | 36324 ft | 467 kts | 272° |
| 2026-05-04 13:15 | 54.08154 | -22.68147 | 36322 ft | 467 kts | 272° |
| 2026-05-04 13:16 | 54.08361 | -22.79210 | 36331 ft | 466 kts | 272° |
| 2026-05-04 13:16 | 54.08559 | -22.90271 | 36329 ft | 467 kts | 272° |
| 2026-05-04 13:17 | 54.08745 | -23.01257 | 36337 ft | 467 kts | 272° |
| 2026-05-04 13:17 | 54.08922 | -23.12321 | 36337 ft | 466 kts | 272° |
| 2026-05-04 13:18 | 54.09089 | -23.23371 | 36337 ft | 466 kts | 272° |
| 2026-05-04 13:18 | 54.09245 | -23.34400 | 36329 ft | 465 kts | 272° |
| 2026-05-04 13:19 | 54.09391 | -23.45403 | 36345 ft | 464 kts | 272° |
| 2026-05-04 13:19 | 54.09526 | -23.56324 | 36341 ft | 464 kts | 272° |
| 2026-05-04 13:20 | 54.09652 | -23.67331 | 36337 ft | 463 kts | 272° |
| 2026-05-04 13:20 | 54.09768 | -23.78311 | 36337 ft | 463 kts | 272° |
| 2026-05-04 13:21 | 54.09874 | -23.89233 | 36339 ft | 463 kts | 272° |
| 2026-05-04 13:21 | 54.09969 | -24.00207 | 36341 ft | 463 kts | 272° |
| 2026-05-04 13:22 | 54.10055 | -24.11171 | 36342 ft | 463 kts | 272° |
| 2026-05-04 13:22 | 54.10131 | -24.22146 | 36348 ft | 463 kts | 271° |
| 2026-05-04 13:23 | 54.10197 | -24.33134 | 36354 ft | 463 kts | 271° |
| 2026-05-04 13:23 | 54.10253 | -24.44106 | 36358 ft | 463 kts | 271° |
| 2026-05-04 13:24 | 54.10298 | -24.55015 | 36356 ft | 462 kts | 271° |
| 2026-05-04 13:24 | 54.10334 | -24.65961 | 36357 ft | 462 kts | 271° |
| 2026-05-04 13:25 | 54.10369 | -24.82383 | 36353 ft | 462 kts | 271° |
| 2026-05-04 13:25 | 54.10380 | -24.93327 | 36359 ft | 462 kts | 270° |
| 2026-05-04 13:26 | 54.10381 | -25.04276 | 36356 ft | 462 kts | 270° |
| 2026-05-04 13:26 | 54.10373 | -25.15219 | 36353 ft | 462 kts | 270° |
| 2026-05-04 13:27 | 54.10354 | -25.26168 | 36357 ft | 462 kts | 270° |
| 2026-05-04 13:27 | 54.10325 | -25.37076 | 36362 ft | 462 kts | 270° |
| 2026-05-04 13:28 | 54.10287 | -25.48047 | 36365 ft | 463 kts | 270° |
| 2026-05-04 13:28 | 54.10238 | -25.59025 | 36380 ft | 463 kts | 270° |
| 2026-05-04 13:29 | 54.10180 | -25.69921 | 36369 ft | 462 kts | 269° |
| 2026-05-04 13:29 | 54.10111 | -25.80880 | 36368 ft | 462 kts | 269° |
| 2026-05-04 13:30 | 54.10033 | -25.91826 | 36373 ft | 462 kts | 269° |
| 2026-05-04 13:30 | 54.09944 | -26.02776 | 36372 ft | 461 kts | 269° |
| 2026-05-04 13:31 | 54.09846 | -26.13722 | 36369 ft | 462 kts | 269° |
| 2026-05-04 13:31 | 54.09739 | -26.24602 | 36362 ft | 462 kts | 269° |
| 2026-05-04 13:32 | 54.09621 | -26.35527 | 36370 ft | 462 kts | 269° |
| 2026-05-04 13:32 | 54.09493 | -26.46484 | 36372 ft | 462 kts | 269° |
| 2026-05-04 13:33 | 54.09355 | -26.57427 | 36375 ft | 462 kts | 269° |
| 2026-05-04 13:33 | 54.09208 | -26.68306 | 36378 ft | 462 kts | 269° |
| 2026-05-04 13:34 | 54.09050 | -26.79256 | 36390 ft | 462 kts | 269° |
| 2026-05-04 13:34 | 54.08882 | -26.90202 | 36388 ft | 461 kts | 268° |
| 2026-05-04 13:35 | 54.08612 | -27.06605 | 36380 ft | 461 kts | 268° |
| 2026-05-04 13:36 | 54.08422 | -27.17449 | 36380 ft | 460 kts | 268° |
| 2026-05-04 13:36 | 54.08220 | -27.28361 | 36381 ft | 460 kts | 268° |
| 2026-05-04 13:37 | 54.08009 | -27.39254 | 36381 ft | 460 kts | 268° |
| 2026-05-04 13:37 | 54.07787 | -27.50153 | 36384 ft | 460 kts | 268° |
| 2026-05-04 13:38 | 54.07556 | -27.61047 | 36383 ft | 460 kts | 268° |
| 2026-05-04 13:38 | 54.07315 | -27.71937 | 36384 ft | 460 kts | 268° |
| 2026-05-04 13:39 | 54.07065 | -27.82824 | 36384 ft | 460 kts | 268° |
| 2026-05-04 13:39 | 54.06804 | -27.93716 | 36383 ft | 460 kts | 268° |
| 2026-05-04 13:40 | 54.06536 | -28.04533 | 36387 ft | 460 kts | 267° |
| 2026-05-04 13:40 | 54.06255 | -28.15427 | 36387 ft | 460 kts | 267° |
| 2026-05-04 13:41 | 54.05966 | -28.26300 | 36384 ft | 459 kts | 267° |
| 2026-05-04 13:41 | 54.05667 | -28.37129 | 36382 ft | 459 kts | 267° |
| 2026-05-04 13:42 | 54.05202 | -28.53366 | 36383 ft | 459 kts | 267° |
| 2026-05-04 13:42 | 54.04878 | -28.64225 | 36385 ft | 459 kts | 267° |
| 2026-05-04 13:43 | 54.04545 | -28.75074 | 36386 ft | 459 kts | 266° |
| 2026-05-04 13:43 | 54.04202 | -28.85915 | 36384 ft | 459 kts | 266° |
| 2026-05-04 13:44 | 54.03850 | -28.96761 | 36385 ft | 459 kts | 266° |
| 2026-05-04 13:44 | 54.03488 | -29.07600 | 36389 ft | 459 kts | 266° |
| 2026-05-04 13:45 | 54.03118 | -29.18376 | 36388 ft | 459 kts | 266° |
| 2026-05-04 13:45 | 54.02736 | -29.29215 | 36396 ft | 459 kts | 266° |
| 2026-05-04 13:46 | 54.02344 | -29.40046 | 36394 ft | 458 kts | 266° |
| 2026-05-04 13:46 | 54.01943 | -29.50877 | 36391 ft | 458 kts | 266° |
| 2026-05-04 13:47 | 54.01536 | -29.61685 | 36390 ft | 458 kts | 266° |
| 2026-05-04 13:47 | 54.01124 | -29.72493 | 36388 ft | 458 kts | 266° |
| 2026-05-04 13:48 | 54.00706 | -29.83231 | 36392 ft | 458 kts | 266° |
| 2026-05-04 13:48 | 54.00277 | -29.94037 | 36392 ft | 458 kts | 266° |
| 2026-05-04 13:49 | 53.99946 | -30.04841 | 36389 ft | 458 kts | 271° |
| 2026-05-04 13:49 | 54.00467 | -30.15642 | 36389 ft | 458 kts | 275° |
| 2026-05-04 13:50 | 54.01021 | -30.26450 | 36397 ft | 459 kts | 274° |
| 2026-05-04 13:50 | 54.01473 | -30.37199 | 36408 ft | 459 kts | 273° |